sensor_id;sensor_type;location;lat;lon;timestamp;pressure;altitude;pressure_sealevel;temperature;humidity
6615;BME280;3343;42.896;23.912;2023-02-19T00:00:12;96633.13;;;9.89;71.70
6615;BME280;3343;42.896;23.912;2023-02-19T00:02:41;96642.47;;;10.06;70.11
6615;BME280;3343;42.896;23.912;2023-02-19T00:05:09;96641.34;;;9.71;71.38
6615;BME280;3343;42.896;23.912;2023-02-19T00:07:36;96642.78;;;9.36;72.93
6615;BME280;3343;42.896;23.912;2023-02-19T00:10:03;96637.50;;;8.76;77.17
6615;BME280;3343;42.896;23.912;2023-02-19T00:12:30;96648.25;;;9.49;74.13
6615;BME280;3343;42.896;23.912;2023-02-19T00:14:59;96639.81;;;9.39;74.16
6615;BME280;3343;42.896;23.912;2023-02-19T00:17:27;96644.78;;;9.11;76.23
6615;BME280;3343;42.896;23.912;2023-02-19T00:19:53;96642.66;;;9.52;74.16
6615;BME280;3343;42.896;23.912;2023-02-19T00:22:20;96640.53;;;9.33;74.62
6615;BME280;3343;42.896;23.912;2023-02-19T00:24:47;96642.78;;;9.59;75.43
6615;BME280;3343;42.896;23.912;2023-02-19T00:27:14;96644.28;;;9.91;72.33
6615;BME280;3343;42.896;23.912;2023-02-19T00:29:41;96644.06;;;9.63;73.46
6615;BME280;3343;42.896;23.912;2023-02-19T00:32:09;96649.50;;;9.62;74.36
6615;BME280;3343;42.896;23.912;2023-02-19T00:34:37;96638.00;;;9.40;75.01
6615;BME280;3343;42.896;23.912;2023-02-19T00:37:04;96637.44;;;9.30;75.58
6615;BME280;3343;42.896;23.912;2023-02-19T00:39:30;96634.41;;;9.18;75.83
6615;BME280;3343;42.896;23.912;2023-02-19T00:41:57;96636.56;;;9.14;76.49
6615;BME280;3343;42.896;23.912;2023-02-19T00:44:25;96620.06;;;9.81;73.56
6615;BME280;3343;42.896;23.912;2023-02-19T00:46:52;96636.75;;;10.17;71.26
6615;BME280;3343;42.896;23.912;2023-02-19T00:49:21;96627.13;;;9.95;72.51
6615;BME280;3343;42.896;23.912;2023-02-19T00:51:49;96626.06;;;9.89;72.78
6615;BME280;3343;42.896;23.912;2023-02-19T00:54:17;96627.78;;;10.12;71.27
6615;BME280;3343;42.896;23.912;2023-02-19T00:56:43;96625.41;;;10.17;71.55
6615;BME280;3343;42.896;23.912;2023-02-19T00:59:11;96622.16;;;10.44;69.91
6615;BME280;3343;42.896;23.912;2023-02-19T01:01:37;96624.59;;;10.16;70.18
6615;BME280;3343;42.896;23.912;2023-02-19T01:04:05;96630.13;;;10.36;69.69
6615;BME280;3343;42.896;23.912;2023-02-19T01:06:33;96629.41;;;10.13;71.01
6615;BME280;3343;42.896;23.912;2023-02-19T01:09:00;96632.84;;;9.84;72.22
6615;BME280;3343;42.896;23.912;2023-02-19T01:11:27;96625.75;;;9.70;73.29
6615;BME280;3343;42.896;23.912;2023-02-19T01:13:56;96624.91;;;9.17;75.85
6615;BME280;3343;42.896;23.912;2023-02-19T01:16:24;96629.19;;;9.33;75.42
6615;BME280;3343;42.896;23.912;2023-02-19T01:18:52;96636.84;;;9.19;76.23
6615;BME280;3343;42.896;23.912;2023-02-19T01:21:20;96633.84;;;8.85;79.25
6615;BME280;3343;42.896;23.912;2023-02-19T01:23:49;96644.84;;;9.26;77.46
6615;BME280;3343;42.896;23.912;2023-02-19T01:26:18;96663.09;;;9.65;75.41
6615;BME280;3343;42.896;23.912;2023-02-19T01:28:46;96679.69;;;9.43;75.82
6615;BME280;3343;42.896;23.912;2023-02-19T01:31:16;96673.25;;;9.68;73.76
6615;BME280;3343;42.896;23.912;2023-02-19T01:33:44;96674.34;;;9.74;73.06
6615;BME280;3343;42.896;23.912;2023-02-19T01:36:12;96668.19;;;9.81;72.20
6615;BME280;3343;42.896;23.912;2023-02-19T01:38:39;96661.84;;;9.15;76.15
6615;BME280;3343;42.896;23.912;2023-02-19T01:41:10;96653.66;;;8.87;78.32
6615;BME280;3343;42.896;23.912;2023-02-19T01:43:54;96656.47;;;9.32;76.77
6615;BME280;3343;42.896;23.912;2023-02-19T01:46:24;96667.38;;;9.96;73.74
6615;BME280;3343;42.896;23.912;2023-02-19T01:48:53;96669.81;;;9.82;72.89
6615;BME280;3343;42.896;23.912;2023-02-19T01:51:21;96673.91;;;10.14;71.13
6615;BME280;3343;42.896;23.912;2023-02-19T01:53:52;96660.94;;;9.83;72.02
6615;BME280;3343;42.896;23.912;2023-02-19T01:56:22;96657.22;;;9.78;72.75
6615;BME280;3343;42.896;23.912;2023-02-19T01:58:50;96663.09;;;9.65;72.52
6615;BME280;3343;42.896;23.912;2023-02-19T02:01:17;96654.31;;;9.87;71.14
6615;BME280;3343;42.896;23.912;2023-02-19T02:03:46;96648.63;;;9.46;73.43
6615;BME280;3343;42.896;23.912;2023-02-19T02:06:17;96645.69;;;9.04;76.13
6615;BME280;3343;42.896;23.912;2023-02-19T02:08:49;96658.38;;;9.15;76.18
6615;BME280;3343;42.896;23.912;2023-02-19T02:11:44;96669.44;;;9.48;74.52
6615;BME280;3343;42.896;23.912;2023-02-19T02:14:11;96657.38;;;9.39;73.96
6615;BME280;3343;42.896;23.912;2023-02-19T02:16:43;96680.13;;;9.46;74.17
6615;BME280;3343;42.896;23.912;2023-02-19T02:19:29;96678.16;;;9.48;74.24
6615;BME280;3343;42.896;23.912;2023-02-19T02:22:06;96661.19;;;9.74;73.23
6615;BME280;3343;42.896;23.912;2023-02-19T02:27:50;96675.72;;;10.73;67.74
6615;BME280;3343;42.896;23.912;2023-02-19T02:30:30;96674.69;;;10.52;68.42
6615;BME280;3343;42.896;23.912;2023-02-19T02:33:05;96657.50;;;9.83;71.76
6615;BME280;3343;42.896;23.912;2023-02-19T02:35:41;96667.25;;;10.27;70.37
6615;BME280;3343;42.896;23.912;2023-02-19T02:38:10;96670.88;;;10.55;68.48
6615;BME280;3343;42.896;23.912;2023-02-19T02:40:42;96675.63;;;9.93;71.39
6615;BME280;3343;42.896;23.912;2023-02-19T02:43:09;96685.25;;;10.00;70.41
6615;BME280;3343;42.896;23.912;2023-02-19T02:45:38;96685.06;;;9.87;71.11
6615;BME280;3343;42.896;23.912;2023-02-19T02:48:17;96690.50;;;10.00;70.46
6615;BME280;3343;42.896;23.912;2023-02-19T02:50:48;96692.13;;;9.86;71.10
6615;BME280;3343;42.896;23.912;2023-02-19T02:53:19;96680.31;;;9.22;74.11
6615;BME280;3343;42.896;23.912;2023-02-19T02:56:06;96681.38;;;9.13;75.22
6615;BME280;3343;42.896;23.912;2023-02-19T02:58:35;96681.56;;;9.11;75.70
6615;BME280;3343;42.896;23.912;2023-02-19T03:01:07;96680.25;;;9.53;74.06
6615;BME280;3343;42.896;23.912;2023-02-19T03:03:54;96686.22;;;9.70;72.45
6615;BME280;3343;42.896;23.912;2023-02-19T03:06:24;96687.59;;;9.80;71.82
6615;BME280;3343;42.896;23.912;2023-02-19T03:08:55;96699.94;;;9.57;72.97
6615;BME280;3343;42.896;23.912;2023-02-19T03:11:24;96693.03;;;9.33;73.15
6615;BME280;3343;42.896;23.912;2023-02-19T03:14:11;96698.66;;;8.76;77.12
6615;BME280;3343;42.896;23.912;2023-02-19T03:17:03;96700.97;;;9.25;75.36
6615;BME280;3343;42.896;23.912;2023-02-19T03:19:54;96714.94;;;9.48;73.77
6615;BME280;3343;42.896;23.912;2023-02-19T03:22:24;96719.84;;;9.74;72.32
6615;BME280;3343;42.896;23.912;2023-02-19T03:24:55;96724.00;;;9.69;71.79
6615;BME280;3343;42.896;23.912;2023-02-19T03:27:44;96724.09;;;9.30;73.42
6615;BME280;3343;42.896;23.912;2023-02-19T03:30:15;96726.84;;;8.82;76.28
6615;BME280;3343;42.896;23.912;2023-02-19T03:32:47;96729.63;;;9.35;74.27
6615;BME280;3343;42.896;23.912;2023-02-19T03:35:18;96729.22;;;9.23;74.24
6615;BME280;3343;42.896;23.912;2023-02-19T03:37:51;96727.91;;;8.96;75.75
6615;BME280;3343;42.896;23.912;2023-02-19T03:40:20;96734.28;;;9.02;76.44
6615;BME280;3343;42.896;23.912;2023-02-19T03:42:55;96731.91;;;9.38;73.72
6615;BME280;3343;42.896;23.912;2023-02-19T03:45:37;96736.19;;;9.62;72.32
6615;BME280;3343;42.896;23.912;2023-02-19T03:48:19;96725.44;;;9.48;72.19
6615;BME280;3343;42.896;23.912;2023-02-19T03:50:53;96730.91;;;9.16;73.52
6615;BME280;3343;42.896;23.912;2023-02-19T03:53:26;96742.69;;;8.97;75.39
6615;BME280;3343;42.896;23.912;2023-02-19T03:56:04;96737.75;;;9.25;74.53
6615;BME280;3343;42.896;23.912;2023-02-19T03:58:38;96740.38;;;9.48;72.75
6615;BME280;3343;42.896;23.912;2023-02-19T04:01:10;96740.63;;;9.61;73.51
6615;BME280;3343;42.896;23.912;2023-02-19T04:03:42;96742.38;;;9.69;72.81
6615;BME280;3343;42.896;23.912;2023-02-19T04:06:14;96741.72;;;9.44;72.80
6615;BME280;3343;42.896;23.912;2023-02-19T04:08:47;96746.94;;;8.51;77.46
6615;BME280;3343;42.896;23.912;2023-02-19T04:11:15;96741.75;;;8.35;79.29
6615;BME280;3343;42.896;23.912;2023-02-19T04:13:50;96751.66;;;8.63;78.42
6615;BME280;3343;42.896;23.912;2023-02-19T04:16:20;96748.56;;;8.68;78.94
6615;BME280;3343;42.896;23.912;2023-02-19T04:18:52;96748.75;;;8.98;77.53
6615;BME280;3343;42.896;23.912;2023-02-19T04:21:21;96722.03;;;8.94;76.43
6615;BME280;3343;42.896;23.912;2023-02-19T04:23:48;96742.31;;;9.00;76.46
6615;BME280;3343;42.896;23.912;2023-02-19T04:26:16;96742.09;;;9.64;73.31
6615;BME280;3343;42.896;23.912;2023-02-19T04:28:45;96740.84;;;9.51;73.25
6615;BME280;3343;42.896;23.912;2023-02-19T04:31:12;96736.75;;;9.49;72.48
6615;BME280;3343;42.896;23.912;2023-02-19T04:33:39;96743.41;;;9.82;71.01
6615;BME280;3343;42.896;23.912;2023-02-19T04:36:09;96749.09;;;10.09;69.53
6615;BME280;3343;42.896;23.912;2023-02-19T04:38:37;96750.84;;;9.56;71.87
6615;BME280;3343;42.896;23.912;2023-02-19T04:41:04;96749.97;;;9.64;71.28
6615;BME280;3343;42.896;23.912;2023-02-19T04:43:31;96748.81;;;9.66;71.08
6615;BME280;3343;42.896;23.912;2023-02-19T04:46:01;96747.16;;;9.42;72.85
6615;BME280;3343;42.896;23.912;2023-02-19T04:48:28;96754.59;;;9.08;73.80
6615;BME280;3343;42.896;23.912;2023-02-19T04:50:55;96763.59;;;9.13;73.88
6615;BME280;3343;42.896;23.912;2023-02-19T04:53:23;96769.28;;;9.48;72.08
6615;BME280;3343;42.896;23.912;2023-02-19T04:55:50;96774.03;;;8.90;74.12
6615;BME280;3343;42.896;23.912;2023-02-19T04:58:19;96782.38;;;8.39;77.56
6615;BME280;3343;42.896;23.912;2023-02-19T05:00:50;96784.81;;;8.56;77.98
6615;BME280;3343;42.896;23.912;2023-02-19T05:03:17;96782.72;;;8.91;76.07
6615;BME280;3343;42.896;23.912;2023-02-19T05:05:44;96793.81;;;8.54;78.07
6615;BME280;3343;42.896;23.912;2023-02-19T05:08:11;96788.59;;;9.01;75.42
6615;BME280;3343;42.896;23.912;2023-02-19T05:10:39;96783.38;;;9.24;75.23
6615;BME280;3343;42.896;23.912;2023-02-19T05:13:06;96792.09;;;9.47;73.06
6615;BME280;3343;42.896;23.912;2023-02-19T05:15:33;96794.34;;;9.58;71.60
6615;BME280;3343;42.896;23.912;2023-02-19T05:18:00;96793.97;;;9.39;72.51
6615;BME280;3343;42.896;23.912;2023-02-19T05:20:27;96807.34;;;8.90;74.81
6615;BME280;3343;42.896;23.912;2023-02-19T05:22:54;96802.66;;;9.08;73.46
6615;BME280;3343;42.896;23.912;2023-02-19T05:25:21;96804.69;;;8.98;74.60
6615;BME280;3343;42.896;23.912;2023-02-19T05:27:49;96807.56;;;8.72;75.61
6615;BME280;3343;42.896;23.912;2023-02-19T05:30:36;96816.06;;;8.82;74.54
6615;BME280;3343;42.896;23.912;2023-02-19T05:33:03;96825.69;;;8.98;74.51
6615;BME280;3343;42.896;23.912;2023-02-19T05:35:30;96824.19;;;8.40;77.34
6615;BME280;3343;42.896;23.912;2023-02-19T05:37:57;96823.69;;;8.12;78.92
6615;BME280;3343;42.896;23.912;2023-02-19T05:40:24;96823.38;;;7.91;80.94
6615;BME280;3343;42.896;23.912;2023-02-19T05:42:52;96823.38;;;7.91;83.12
6615;BME280;3343;42.896;23.912;2023-02-19T05:45:19;96814.66;;;8.47;79.58
6615;BME280;3343;42.896;23.912;2023-02-19T05:47:45;96824.19;;;9.04;76.73
6615;BME280;3343;42.896;23.912;2023-02-19T05:50:12;96821.84;;;8.70;76.91
6615;BME280;3343;42.896;23.912;2023-02-19T05:52:39;96823.78;;;8.76;77.53
6615;BME280;3343;42.896;23.912;2023-02-19T05:55:06;96823.63;;;9.16;75.52
6615;BME280;3343;42.896;23.912;2023-02-19T05:57:38;96834.19;;;9.70;73.04
6615;BME280;3343;42.896;23.912;2023-02-19T06:00:10;96831.78;;;9.83;72.06
6615;BME280;3343;42.896;23.912;2023-02-19T06:02:37;96835.16;;;9.38;74.08
6615;BME280;3343;42.896;23.912;2023-02-19T06:05:05;96833.13;;;9.48;74.13
6615;BME280;3343;42.896;23.912;2023-02-19T06:07:32;96836.31;;;10.73;70.56
6615;BME280;3343;42.896;23.912;2023-02-19T06:09:59;96843.91;;;11.41;66.67
6615;BME280;3343;42.896;23.912;2023-02-19T06:12:26;96847.00;;;12.02;62.38
6615;BME280;3343;42.896;23.912;2023-02-19T06:14:53;96856.22;;;11.92;60.69
6615;BME280;3343;42.896;23.912;2023-02-19T06:17:21;96844.38;;;12.24;59.82
6615;BME280;3343;42.896;23.912;2023-02-19T06:19:48;96841.16;;;12.07;60.38
6615;BME280;3343;42.896;23.912;2023-02-19T06:22:15;96855.44;;;12.34;60.08
6615;BME280;3343;42.896;23.912;2023-02-19T06:24:42;96858.97;;;13.03;59.29
6615;BME280;3343;42.896;23.912;2023-02-19T06:27:09;96858.56;;;13.89;55.58
6615;BME280;3343;42.896;23.912;2023-02-19T06:29:36;96866.34;;;14.30;54.20
6615;BME280;3343;42.896;23.912;2023-02-19T06:32:04;96865.78;;;14.54;52.76
6615;BME280;3343;42.896;23.912;2023-02-19T06:34:33;96875.34;;;14.69;51.71
6615;BME280;3343;42.896;23.912;2023-02-19T06:37:00;96859.72;;;13.73;54.45
6615;BME280;3343;42.896;23.912;2023-02-19T06:39:27;96861.56;;;13.79;55.05
6615;BME280;3343;42.896;23.912;2023-02-19T06:41:54;96876.72;;;13.51;55.99
6615;BME280;3343;42.896;23.912;2023-02-19T06:44:21;96873.00;;;13.93;56.57
6615;BME280;3343;42.896;23.912;2023-02-19T06:46:47;96867.25;;;13.83;54.34
6615;BME280;3343;42.896;23.912;2023-02-19T06:49:15;96879.16;;;14.20;53.74
6615;BME280;3343;42.896;23.912;2023-02-19T06:51:43;96861.78;;;15.29;53.71
6615;BME280;3343;42.896;23.912;2023-02-19T06:54:10;96866.69;;;15.90;50.01
6615;BME280;3343;42.896;23.912;2023-02-19T06:56:37;96870.69;;;16.63;47.63
6615;BME280;3343;42.896;23.912;2023-02-19T06:59:06;96861.06;;;16.68;46.63
6615;BME280;3343;42.896;23.912;2023-02-19T07:01:35;96856.28;;;16.77;47.17
6615;BME280;3343;42.896;23.912;2023-02-19T07:04:02;96859.59;;;17.15;46.54
6615;BME280;3343;42.896;23.912;2023-02-19T07:06:30;96865.00;;;17.27;45.57
6615;BME280;3343;42.896;23.912;2023-02-19T07:08:59;96873.66;;;17.41;44.28
6615;BME280;3343;42.896;23.912;2023-02-19T07:11:29;96868.03;;;17.49;42.87
6615;BME280;3343;42.896;23.912;2023-02-19T07:13:56;96872.34;;;17.68;43.65
6615;BME280;3343;42.896;23.912;2023-02-19T07:16:24;96872.13;;;18.00;42.99
6615;BME280;3343;42.896;23.912;2023-02-19T07:18:51;96864.91;;;17.89;43.29
6615;BME280;3343;42.896;23.912;2023-02-19T07:21:18;96875.78;;;18.17;41.71
6615;BME280;3343;42.896;23.912;2023-02-19T07:23:45;96875.63;;;18.12;42.88
6615;BME280;3343;42.896;23.912;2023-02-19T07:26:14;96876.69;;;18.41;41.92
6615;BME280;3343;42.896;23.912;2023-02-19T07:28:42;96866.66;;;18.66;43.04
6615;BME280;3343;42.896;23.912;2023-02-19T07:31:10;96874.91;;;19.35;41.46
6615;BME280;3343;42.896;23.912;2023-02-19T07:33:37;96867.72;;;19.87;39.73
6615;BME280;3343;42.896;23.912;2023-02-19T07:36:06;96857.56;;;20.29;39.06
6615;BME280;3343;42.896;23.912;2023-02-19T07:38:33;96858.91;;;20.15;38.77
6615;BME280;3343;42.896;23.912;2023-02-19T07:41:01;96843.78;;;20.38;37.71
6615;BME280;3343;42.896;23.912;2023-02-19T07:43:31;96853.63;;;20.49;37.24
6615;BME280;3343;42.896;23.912;2023-02-19T07:46:01;96861.50;;;20.72;36.13
6615;BME280;3343;42.896;23.912;2023-02-19T07:48:28;96875.59;;;21.01;36.10
6615;BME280;3343;42.896;23.912;2023-02-19T07:50:57;96869.97;;;21.19;35.24
6615;BME280;3343;42.896;23.912;2023-02-19T07:53:25;96868.09;;;21.58;34.14
6615;BME280;3343;42.896;23.912;2023-02-19T07:55:52;96864.78;;;21.68;32.44
6615;BME280;3343;42.896;23.912;2023-02-19T07:58:19;96874.16;;;21.92;31.00
6615;BME280;3343;42.896;23.912;2023-02-19T08:00:48;96870.06;;;22.61;31.28
6615;BME280;3343;42.896;23.912;2023-02-19T08:03:15;96865.63;;;22.76;29.90
6615;BME280;3343;42.896;23.912;2023-02-19T08:05:41;96872.19;;;22.91;30.17
6615;BME280;3343;42.896;23.912;2023-02-19T08:08:10;96868.41;;;23.29;30.88
6615;BME280;3343;42.896;23.912;2023-02-19T08:10:37;96862.63;;;23.05;30.10
6615;BME280;3343;42.896;23.912;2023-02-19T08:13:22;96870.13;;;23.03;29.97
6615;BME280;3343;42.896;23.912;2023-02-19T08:15:52;96862.22;;;23.28;30.01
6615;BME280;3343;42.896;23.912;2023-02-19T08:18:21;96860.59;;;23.27;29.69
6615;BME280;3343;42.896;23.912;2023-02-19T08:20:48;96866.13;;;23.05;29.76
6615;BME280;3343;42.896;23.912;2023-02-19T08:23:16;96863.03;;;22.86;30.86
6615;BME280;3343;42.896;23.912;2023-02-19T08:25:46;96862.50;;;22.58;30.33
6615;BME280;3343;42.896;23.912;2023-02-19T08:28:13;96861.00;;;21.91;31.86
6615;BME280;3343;42.896;23.912;2023-02-19T08:30:41;96856.75;;;22.17;32.24
6615;BME280;3343;42.896;23.912;2023-02-19T08:33:11;96857.25;;;22.14;30.92
6615;BME280;3343;42.896;23.912;2023-02-19T08:35:38;96861.50;;;22.37;31.74
6615;BME280;3343;42.896;23.912;2023-02-19T08:38:06;96859.75;;;22.52;32.03
6615;BME280;3343;42.896;23.912;2023-02-19T08:40:33;96856.94;;;22.96;30.37
6615;BME280;3343;42.896;23.912;2023-02-19T08:43:03;96847.41;;;23.20;30.68
6615;BME280;3343;42.896;23.912;2023-02-19T08:45:30;96848.00;;;23.28;29.65
6615;BME280;3343;42.896;23.912;2023-02-19T08:47:57;96840.19;;;23.26;29.95
6615;BME280;3343;42.896;23.912;2023-02-19T08:50:26;96844.53;;;23.37;30.59
6615;BME280;3343;42.896;23.912;2023-02-19T08:52:53;96829.28;;;22.96;30.34
6615;BME280;3343;42.896;23.912;2023-02-19T08:55:19;96817.03;;;22.73;30.87
6615;BME280;3343;42.896;23.912;2023-02-19T08:57:46;96834.13;;;22.99;30.63
6615;BME280;3343;42.896;23.912;2023-02-19T09:00:14;96835.88;;;23.20;30.37
6615;BME280;3343;42.896;23.912;2023-02-19T09:02:41;96837.66;;;23.51;30.67
6615;BME280;3343;42.896;23.912;2023-02-19T09:05:09;96837.19;;;23.60;30.53
6615;BME280;3343;42.896;23.912;2023-02-19T09:07:38;96812.75;;;23.61;29.74
6615;BME280;3343;42.896;23.912;2023-02-19T09:10:06;96823.50;;;23.66;29.88
6615;BME280;3343;42.896;23.912;2023-02-19T09:12:33;96810.84;;;23.62;30.31
6615;BME280;3343;42.896;23.912;2023-02-19T09:15:00;96819.47;;;23.64;30.29
6615;BME280;3343;42.896;23.912;2023-02-19T09:17:27;96821.72;;;23.35;30.14
6615;BME280;3343;42.896;23.912;2023-02-19T09:19:54;96816.16;;;23.51;30.37
6615;BME280;3343;42.896;23.912;2023-02-19T09:22:21;96826.69;;;23.58;29.83
6615;BME280;3343;42.896;23.912;2023-02-19T09:24:49;96805.47;;;23.62;28.97
6615;BME280;3343;42.896;23.912;2023-02-19T09:27:16;96813.78;;;23.55;29.71
6615;BME280;3343;42.896;23.912;2023-02-19T09:29:44;96810.59;;;23.63;30.34
6615;BME280;3343;42.896;23.912;2023-02-19T09:32:12;96813.06;;;23.80;29.40
6615;BME280;3343;42.896;23.912;2023-02-19T09:34:39;96806.06;;;23.79;29.36
6615;BME280;3343;42.896;23.912;2023-02-19T09:37:06;96804.50;;;23.93;29.29
6615;BME280;3343;42.896;23.912;2023-02-19T09:39:34;96804.47;;;23.88;28.78
6615;BME280;3343;42.896;23.912;2023-02-19T09:42:09;96806.09;;;23.94;29.46
6615;BME280;3343;42.896;23.912;2023-02-19T09:44:40;96808.56;;;24.11;29.38
6615;BME280;3343;42.896;23.912;2023-02-19T09:47:14;96802.72;;;24.44;28.70
6615;BME280;3343;42.896;23.912;2023-02-19T09:49:43;96803.78;;;24.38;29.18
6615;BME280;3343;42.896;23.912;2023-02-19T09:52:18;96793.81;;;24.59;28.82
6615;BME280;3343;42.896;23.912;2023-02-19T09:54:45;96804.06;;;24.42;29.28
6615;BME280;3343;42.896;23.912;2023-02-19T09:57:16;96781.66;;;24.06;29.25
6615;BME280;3343;42.896;23.912;2023-02-19T09:59:45;96799.06;;;23.73;29.51
6615;BME280;3343;42.896;23.912;2023-02-19T10:02:15;96797.47;;;23.77;29.93
6615;BME280;3343;42.896;23.912;2023-02-19T10:04:44;96788.34;;;23.83;29.58
6615;BME280;3343;42.896;23.912;2023-02-19T10:07:12;96781.34;;;23.77;30.19
6615;BME280;3343;42.896;23.912;2023-02-19T10:09:39;96778.81;;;23.50;30.07
6615;BME280;3343;42.896;23.912;2023-02-19T10:12:15;96772.16;;;23.63;29.67
6615;BME280;3343;42.896;23.912;2023-02-19T10:14:46;96767.78;;;23.41;30.20
6615;BME280;3343;42.896;23.912;2023-02-19T10:17:21;96779.19;;;23.69;30.28
6615;BME280;3343;42.896;23.912;2023-02-19T10:19:49;96764.09;;;23.58;30.50
6615;BME280;3343;42.896;23.912;2023-02-19T10:22:16;96763.63;;;23.96;30.08
6615;BME280;3343;42.896;23.912;2023-02-19T10:24:44;96749.66;;;23.84;29.81
6615;BME280;3343;42.896;23.912;2023-02-19T10:27:12;96743.69;;;23.62;30.23
6615;BME280;3343;42.896;23.912;2023-02-19T10:29:42;96733.22;;;23.65;29.95
6615;BME280;3343;42.896;23.912;2023-02-19T10:32:17;96719.28;;;23.94;29.88
6615;BME280;3343;42.896;23.912;2023-02-19T10:34:46;96719.28;;;24.04;30.06
6615;BME280;3343;42.896;23.912;2023-02-19T10:37:15;96716.91;;;24.38;29.37
6615;BME280;3343;42.896;23.912;2023-02-19T10:39:44;96687.56;;;24.16;29.80
6615;BME280;3343;42.896;23.912;2023-02-19T10:42:19;96704.22;;;24.08;29.47
6615;BME280;3343;42.896;23.912;2023-02-19T10:44:51;96694.78;;;23.60;30.19
6615;BME280;3343;42.896;23.912;2023-02-19T10:47:22;96686.34;;;23.31;30.40
6615;BME280;3343;42.896;23.912;2023-02-19T10:49:51;96677.72;;;23.24;30.41
6615;BME280;3343;42.896;23.912;2023-02-19T10:52:21;96676.97;;;23.38;30.45
6615;BME280;3343;42.896;23.912;2023-02-19T10:54:51;96663.38;;;23.75;30.09
6615;BME280;3343;42.896;23.912;2023-02-19T10:57:28;96662.00;;;24.03;29.22
6615;BME280;3343;42.896;23.912;2023-02-19T11:00:05;96666.59;;;24.13;29.91
6615;BME280;3343;42.896;23.912;2023-02-19T11:02:44;96663.34;;;24.11;29.29
6615;BME280;3343;42.896;23.912;2023-02-19T11:05:16;96664.72;;;24.34;29.10
6615;BME280;3343;42.896;23.912;2023-02-19T11:07:46;96663.88;;;24.49;28.87
6615;BME280;3343;42.896;23.912;2023-02-19T11:10:24;96661.50;;;24.37;28.72
6615;BME280;3343;42.896;23.912;2023-02-19T11:12:53;96650.91;;;24.66;28.24
6615;BME280;3343;42.896;23.912;2023-02-19T11:15:24;96653.84;;;24.80;28.86
6615;BME280;3343;42.896;23.912;2023-02-19T11:17:57;96657.63;;;24.73;27.92
6615;BME280;3343;42.896;23.912;2023-02-19T11:20:25;96649.63;;;24.48;28.28
6615;BME280;3343;42.896;23.912;2023-02-19T11:22:57;96645.25;;;24.67;28.71
6615;BME280;3343;42.896;23.912;2023-02-19T11:25:26;96645.56;;;24.56;28.51
6615;BME280;3343;42.896;23.912;2023-02-19T11:27:58;96622.69;;;24.58;27.68
6615;BME280;3343;42.896;23.912;2023-02-19T11:30:36;96631.69;;;24.93;27.80
6615;BME280;3343;42.896;23.912;2023-02-19T11:33:19;96628.03;;;24.68;27.90
6615;BME280;3343;42.896;23.912;2023-02-19T11:35:48;96629.59;;;24.80;27.97
6615;BME280;3343;42.896;23.912;2023-02-19T11:38:17;96625.53;;;24.87;27.83
6615;BME280;3343;42.896;23.912;2023-02-19T11:40:51;96619.88;;;24.89;28.06
6615;BME280;3343;42.896;23.912;2023-02-19T11:43:39;96609.97;;;24.74;27.50
6615;BME280;3343;42.896;23.912;2023-02-19T11:46:16;96614.31;;;24.70;28.19
6615;BME280;3343;42.896;23.912;2023-02-19T11:48:51;96610.31;;;24.62;28.04
6615;BME280;3343;42.896;23.912;2023-02-19T11:51:47;96594.91;;;24.78;27.68
6615;BME280;3343;42.896;23.912;2023-02-19T11:54:27;96599.53;;;24.62;27.51
6615;BME280;3343;42.896;23.912;2023-02-19T11:57:04;96592.53;;;24.66;27.89
6615;BME280;3343;42.896;23.912;2023-02-19T11:59:40;96580.09;;;24.75;27.45
6615;BME280;3343;42.896;23.912;2023-02-19T12:02:27;96582.06;;;24.60;28.50
6615;BME280;3343;42.896;23.912;2023-02-19T12:05:22;96580.25;;;24.40;27.83
6615;BME280;3343;42.896;23.912;2023-02-19T12:11:10;96552.47;;;25.09;27.50
6615;BME280;3343;42.896;23.912;2023-02-19T12:14:04;96546.16;;;25.29;26.81
6615;BME280;3343;42.896;23.912;2023-02-19T12:16:38;96546.09;;;25.39;27.10
6615;BME280;3343;42.896;23.912;2023-02-19T12:19:32;96538.25;;;25.43;25.64
6615;BME280;3343;42.896;23.912;2023-02-19T12:22:15;96535.72;;;25.22;26.26
6615;BME280;3343;42.896;23.912;2023-02-19T12:28:00;96536.13;;;24.95;26.50
6615;BME280;3343;42.896;23.912;2023-02-19T12:30:50;96525.22;;;25.21;26.12
6615;BME280;3343;42.896;23.912;2023-02-19T12:33:39;96522.13;;;25.37;25.75
6615;BME280;3343;42.896;23.912;2023-02-19T12:36:19;96525.41;;;25.63;25.14
6615;BME280;3343;42.896;23.912;2023-02-19T12:38:58;96508.94;;;25.36;25.82
6615;BME280;3343;42.896;23.912;2023-02-19T12:41:35;96509.41;;;25.77;25.69
6615;BME280;3343;42.896;23.912;2023-02-19T12:44:11;96498.72;;;25.67;25.65
6615;BME280;3343;42.896;23.912;2023-02-19T12:46:45;96499.34;;;25.54;25.55
6615;BME280;3343;42.896;23.912;2023-02-19T12:49:17;96497.06;;;25.03;26.45
6615;BME280;3343;42.896;23.912;2023-02-19T12:51:52;96483.50;;;25.13;26.22
6615;BME280;3343;42.896;23.912;2023-02-19T12:54:25;96481.81;;;25.27;26.61
6615;BME280;3343;42.896;23.912;2023-02-19T12:56:58;96491.50;;;25.28;26.71
6615;BME280;3343;42.896;23.912;2023-02-19T12:59:30;96484.59;;;25.46;26.33
6615;BME280;3343;42.896;23.912;2023-02-19T13:02:02;96485.72;;;25.74;25.93
6615;BME280;3343;42.896;23.912;2023-02-19T13:04:36;96472.22;;;25.74;26.12
6615;BME280;3343;42.896;23.912;2023-02-19T13:07:12;96466.69;;;25.60;26.23
6615;BME280;3343;42.896;23.912;2023-02-19T13:09:44;96465.81;;;25.02;25.96
6615;BME280;3343;42.896;23.912;2023-02-19T13:12:18;96462.66;;;24.90;26.60
6615;BME280;3343;42.896;23.912;2023-02-19T13:14:50;96452.47;;;25.26;26.49
6615;BME280;3343;42.896;23.912;2023-02-19T13:17:24;96446.84;;;25.51;25.75
6615;BME280;3343;42.896;23.912;2023-02-19T13:19:56;96443.22;;;25.61;25.76
6615;BME280;3343;42.896;23.912;2023-02-19T13:22:33;96442.34;;;25.42;25.99
6615;BME280;3343;42.896;23.912;2023-02-19T13:25:20;96447.34;;;25.24;26.53
6615;BME280;3343;42.896;23.912;2023-02-19T13:28:05;96431.44;;;24.89;26.46
6615;BME280;3343;42.896;23.912;2023-02-19T13:30:47;96441.19;;;24.80;26.93
6615;BME280;3343;42.896;23.912;2023-02-19T13:33:31;96422.25;;;24.56;27.46
6615;BME280;3343;42.896;23.912;2023-02-19T13:36:03;96427.09;;;24.93;27.03
6615;BME280;3343;42.896;23.912;2023-02-19T13:38:36;96425.63;;;25.11;26.92
6615;BME280;3343;42.896;23.912;2023-02-19T13:41:04;96416.88;;;24.90;27.29
6615;BME280;3343;42.896;23.912;2023-02-19T13:43:33;96417.09;;;24.64;27.42